Time;durP1;ratioP1;P1;durP2;ratioP2;P2;SDS_P1;SDS_P2;PMS_P1;PMS_P2;Temp;Humidity;BMP_temperature;BMP_pressure;BME280_temperature;BME280_humidity;BME280_pressure;Samples;Min_cycle;Max_cycle;Signal;HPM_P1;HPM_P2
2023/02/12 00:00:33;;;;;;;38.63;26.33;;;;;;;;;;763739;182;913336;-69
2023/02/12 00:02:59;;;;;;;40.87;24.83;;;;;;;;;;771940;180;913577;-68
2023/02/12 00:05:25;;;;;;;41.80;24.67;;;;;;;;;;761970;183;981879;-68
2023/02/12 00:07:51;;;;;;;43.27;25.10;;;;;;;;;;757571;183;919132;-69
2023/02/12 00:10:17;;;;;;;44.80;24.20;;;;;;;;;;760969;183;918821;-68
2023/02/12 00:12:42;;;;;;;46.80;25.67;;;;;;;;;;758861;183;816704;-69
2023/02/12 00:15:08;;;;;;;34.25;21.50;;;;;;;;;;760136;183;918151;-68
2023/02/12 00:17:34;;;;;;;45.33;27.00;;;;;;;;;;763699;183;918731;-69
2023/02/12 00:20:00;;;;;;;39.47;23.75;;;;;;;;;;760872;183;918528;-69
2023/02/12 00:22:26;;;;;;;44.30;25.47;;;;;;;;;;758519;183;917649;-68
2023/02/12 00:24:52;;;;;;;43.05;24.40;;;;;;;;;;759882;183;1019644;-69
2023/02/12 00:27:18;;;;;;;43.33;25.07;;;;;;;;;;769956;182;919626;-68
2023/02/12 00:29:44;;;;;;;44.60;27.23;;;;;;;;;;763530;183;918357;-69
2023/02/12 00:32:09;;;;;;;43.67;23.50;;;;;;;;;;759081;179;896521;-68
2023/02/12 00:34:35;;;;;;;48.03;25.53;;;;;;;;;;763838;183;918804;-68
2023/02/12 00:37:01;;;;;;;38.80;24.27;;;;;;;;;;758411;183;919298;-68
2023/02/12 00:39:27;;;;;;;43.30;23.40;;;;;;;;;;761656;183;918013;-68
2023/02/12 00:41:53;;;;;;;37.17;22.87;;;;;;;;;;771691;182;862614;-68
2023/02/12 00:44:19;;;;;;;43.80;24.50;;;;;;;;;;765578;183;811079;-69
2023/02/12 00:46:44;;;;;;;38.10;23.23;;;;;;;;;;761892;180;914631;-68
2023/02/12 00:49:10;;;;;;;34.97;20.70;;;;;;;;;;770683;183;816096;-68
2023/02/12 00:51:36;;;;;;;37.07;22.00;;;;;;;;;;766874;180;913529;-68
2023/02/12 00:54:02;;;;;;;33.17;21.70;;;;;;;;;;764726;180;919590;-69
2023/02/12 00:56:28;;;;;;;43.00;25.20;;;;;;;;;;765045;182;817031;-69
2023/02/12 00:58:54;;;;;;;36.80;22.27;;;;;;;;;;769466;180;715900;-69
2023/02/12 01:01:20;;;;;;;39.33;22.20;;;;;;;;;;768294;183;918557;-69
2023/02/12 01:03:45;;;;;;;36.00;22.47;;;;;;;;;;765557;183;919860;-69
2023/02/12 01:06:11;;;;;;;35.47;21.80;;;;;;;;;;770320;183;813939;-69
2023/02/12 01:08:37;;;;;;;35.23;21.10;;;;;;;;;;760162;183;918864;-69
2023/02/12 01:11:03;;;;;;;39.13;21.97;;;;;;;;;;751300;187;919075;-69
2023/02/12 01:13:29;;;;;;;38.60;24.30;;;;;;;;;;761590;182;918630;-69
2023/02/12 01:16:02;;;;;;;35.70;22.67;;;;;;;;;;755086;184;919562;-68
2023/02/12 01:18:27;;;;;;;37.00;20.40;;;;;;;;;;759567;183;918750;-68
2023/02/12 01:20:53;;;;;;;34.47;23.00;;;;;;;;;;759246;183;918502;-68
2023/02/12 01:23:19;;;;;;;36.67;20.93;;;;;;;;;;769416;183;712844;-68
2023/02/12 01:25:45;;;;;;;30.67;19.93;;;;;;;;;;759049;183;918996;-69
2023/02/12 01:28:11;;;;;;;35.17;20.63;;;;;;;;;;758156;184;918501;-68
2023/02/12 01:30:37;;;;;;;34.13;21.55;;;;;;;;;;763970;184;919198;-68
2023/02/12 01:33:02;;;;;;;33.57;21.33;;;;;;;;;;763975;183;867611;-68
2023/02/12 01:35:28;;;;;;;37.17;22.37;;;;;;;;;;762080;183;919645;-69
2023/02/12 01:37:54;;;;;;;43.83;23.20;;;;;;;;;;761565;183;919128;-69
2023/02/12 01:40:20;;;;;;;38.67;22.97;;;;;;;;;;774089;182;867933;-68
2023/02/12 01:42:46;;;;;;;32.53;19.50;;;;;;;;;;765174;180;917182;-68
2023/02/12 01:45:12;;;;;;;37.67;21.47;;;;;;;;;;763695;183;816743;-69
2023/02/12 01:47:37;;;;;;;29.07;19.40;;;;;;;;;;764649;183;818859;-68
2023/02/12 01:50:04;;;;;;;31.93;19.40;;;;;;;;;;760395;184;815533;-69
2023/02/12 01:52:29;;;;;;;37.93;20.03;;;;;;;;;;754749;184;816538;-68
2023/02/12 01:54:55;;;;;;;28.73;19.07;;;;;;;;;;764900;183;919066;-69
2023/02/12 01:57:21;;;;;;;30.80;18.97;;;;;;;;;;761857;183;917791;-69
2023/02/12 01:59:47;;;;;;;27.90;18.10;;;;;;;;;;762718;183;816824;-69
2023/02/12 02:02:13;;;;;;;30.27;18.67;;;;;;;;;;753593;183;842573;-69
2023/02/12 02:04:39;;;;;;;36.05;19.65;;;;;;;;;;752452;187;919561;-68
2023/02/12 02:07:05;;;;;;;28.97;18.70;;;;;;;;;;761393;183;919678;-68
2023/02/12 02:09:31;;;;;;;36.05;21.05;;;;;;;;;;762616;183;835534;-69
2023/02/12 02:14:31;;;;;;;29.30;19.93;;;;;;;;;;754211;185;919713;-68
2023/02/12 02:16:58;;;;;;;32.30;21.23;;;;;;;;;;754153;184;917474;-68
2023/02/12 02:19:24;;;;;;;36.57;22.50;;;;;;;;;;754658;185;915957;-68
2023/02/12 02:21:50;;;;;;;36.67;20.80;;;;;;;;;;756616;182;917756;-68
2023/02/12 02:24:22;;;;;;;32.70;23.23;;;;;;;;;;750662;184;919205;-69
2023/02/12 02:27:03;;;;;;;32.60;20.07;;;;;;;;;;762174;181;919262;-69
2023/02/12 02:29:31;;;;;;;37.50;20.17;;;;;;;;;;756508;183;969991;-68
2023/02/12 02:31:58;;;;;;;33.43;22.50;;;;;;;;;;761571;180;917770;-70
2023/02/12 02:34:25;;;;;;;35.87;21.17;;;;;;;;;;756777;183;914080;-68
2023/02/12 02:37:03;;;;;;;34.67;18.87;;;;;;;;;;762227;183;923442;-68
2023/02/12 02:39:33;;;;;;;29.03;19.30;;;;;;;;;;760449;183;919509;-69
2023/02/12 02:41:59;;;;;;;27.87;18.37;;;;;;;;;;764288;180;918573;-68
2023/02/12 02:44:25;;;;;;;32.93;19.37;;;;;;;;;;761469;183;919524;-68
2023/02/12 02:46:51;;;;;;;28.60;18.20;;;;;;;;;;761725;184;919329;-68
2023/02/12 02:49:16;;;;;;;31.20;17.53;;;;;;;;;;752727;183;920629;-68
2023/02/12 02:51:43;;;;;;;27.20;16.53;;;;;;;;;;759369;183;921648;-68
2023/02/12 02:54:10;;;;;;;24.77;16.57;;;;;;;;;;757408;183;920833;-68
2023/02/12 02:56:35;;;;;;;28.17;16.57;;;;;;;;;;765573;180;1022480;-68
2023/02/12 02:59:03;;;;;;;31.90;18.67;;;;;;;;;;757226;183;922178;-69
2023/02/12 03:01:30;;;;;;;25.30;16.37;;;;;;;;;;772047;182;893638;-69
2023/02/12 03:04:12;;;;;;;29.40;17.83;;;;;;;;;;764161;182;916996;-69
2023/02/12 03:06:39;;;;;;;25.73;16.90;;;;;;;;;;763674;183;919969;-70
2023/02/12 03:09:05;;;;;;;28.07;16.83;;;;;;;;;;763281;183;918172;-70
2023/02/12 03:11:32;;;;;;;26.57;16.73;;;;;;;;;;768459;183;817104;-70
2023/02/12 03:13:57;;;;;;;26.73;16.92;;;;;;;;;;766073;181;919176;-70
2023/02/12 03:16:23;;;;;;;41.30;21.63;;;;;;;;;;767750;183;918273;-69
2023/02/12 03:18:49;;;;;;;36.43;19.30;;;;;;;;;;770377;182;919468;-69
2023/02/12 03:21:15;;;;;;;33.90;18.30;;;;;;;;;;770140;182;918786;-69
2023/02/12 03:23:42;;;;;;;43.90;21.73;;;;;;;;;;762712;183;915356;-70
2023/02/12 03:26:08;;;;;;;80.50;34.67;;;;;;;;;;754399;184;918005;-70
2023/02/12 03:28:33;;;;;;;39.27;19.37;;;;;;;;;;745693;187;919614;-70
2023/02/12 03:31:15;;;;;;;36.53;19.87;;;;;;;;;;753577;183;912945;-71
2023/02/12 03:33:44;;;;;;;28.93;15.53;;;;;;;;;;748604;187;920175;-70
2023/02/12 03:36:13;;;;;;;31.50;18.00;;;;;;;;;;750732;187;1015798;-70
2023/02/12 03:38:40;;;;;;;28.62;17.05;;;;;;;;;;751186;186;918823;-71
2023/02/12 03:41:08;;;;;;;27.30;17.23;;;;;;;;;;754882;185;914320;-70
2023/02/12 03:43:36;;;;;;;29.03;17.70;;;;;;;;;;756981;183;920693;-70
2023/02/12 03:46:01;;;;;;;24.07;15.30;;;;;;;;;;751817;187;915420;-70
2023/02/12 03:48:32;;;;;;;28.67;16.87;;;;;;;;;;757316;184;919798;-70
2023/02/12 03:51:03;;;;;;;24.57;17.20;;;;;;;;;;753624;185;933031;-70
2023/02/12 03:53:29;;;;;;;26.47;15.90;;;;;;;;;;750669;183;919776;-68
2023/02/12 03:55:55;;;;;;;27.30;15.80;;;;;;;;;;749986;187;822978;-68
2023/02/12 03:58:21;;;;;;;24.87;15.53;;;;;;;;;;753349;187;918905;-69
2023/02/12 04:00:47;;;;;;;22.40;14.23;;;;;;;;;;753132;186;918288;-68
2023/02/12 04:03:13;;;;;;;24.43;13.97;;;;;;;;;;748960;187;899019;-68
2023/02/12 04:05:39;;;;;;;24.33;15.00;;;;;;;;;;747916;187;918838;-68
2023/02/12 04:08:04;;;;;;;24.43;15.60;;;;;;;;;;768392;179;917377;-68
2023/02/12 04:10:32;;;;;;;26.77;15.37;;;;;;;;;;759241;183;919566;-68
2023/02/12 04:13:02;;;;;;;20.07;13.10;;;;;;;;;;762734;180;850606;-69
2023/02/12 04:15:30;;;;;;;24.20;14.57;;;;;;;;;;768420;183;814641;-68
2023/02/12 04:17:56;;;;;;;25.63;16.20;;;;;;;;;;763570;183;917291;-68
2023/02/12 04:20:24;;;;;;;29.98;17.12;;;;;;;;;;753164;183;931432;-68
2023/02/12 04:22:50;;;;;;;24.73;14.60;;;;;;;;;;758493;184;816744;-70
2023/02/12 04:25:29;;;;;;;24.87;14.87;;;;;;;;;;775413;180;817713;-68
2023/02/12 04:28:05;;;;;;;26.92;16.77;;;;;;;;;;768418;181;919219;-69
2023/02/12 04:30:31;;;;;;;25.00;15.20;;;;;;;;;;756784;181;919228;-69
2023/02/12 04:33:00;;;;;;;24.47;14.47;;;;;;;;;;757630;180;919067;-70
2023/02/12 04:35:30;;;;;;;25.67;15.00;;;;;;;;;;758116;183;919176;-70
2023/02/12 04:38:11;;;;;;;24.70;15.70;;;;;;;;;;772341;179;919620;-69
2023/02/12 04:40:38;;;;;;;23.63;15.73;;;;;;;;;;768243;183;917948;-69
2023/02/12 04:43:03;;;;;;;26.60;16.87;;;;;;;;;;755275;183;919426;-69
2023/02/12 04:45:29;;;;;;;25.92;16.67;;;;;;;;;;757093;183;920160;-69
2023/02/12 04:47:55;;;;;;;24.57;16.80;;;;;;;;;;760199;182;920502;-69
2023/02/12 04:50:21;;;;;;;26.90;17.27;;;;;;;;;;750620;183;920596;-68
2023/02/12 04:52:47;;;;;;;22.27;14.53;;;;;;;;;;760542;183;912616;-68
2023/02/12 04:55:13;;;;;;;24.80;15.90;;;;;;;;;;770455;183;918694;-68
2023/02/12 04:57:38;;;;;;;23.67;14.80;;;;;;;;;;763602;183;1013162;-68
2023/02/12 05:00:05;;;;;;;25.60;15.00;;;;;;;;;;764650;182;923031;-68
2023/02/12 05:02:30;;;;;;;23.00;14.60;;;;;;;;;;759881;181;923509;-68
2023/02/12 05:04:56;;;;;;;26.53;15.40;;;;;;;;;;761451;183;899958;-68
2023/02/12 05:07:22;;;;;;;24.00;15.63;;;;;;;;;;755204;183;855702;-69
2023/02/12 05:09:48;;;;;;;23.60;14.30;;;;;;;;;;755252;183;936818;-69
2023/02/12 05:12:14;;;;;;;20.37;13.97;;;;;;;;;;757254;184;919730;-68
2023/02/12 05:14:40;;;;;;;29.50;17.50;;;;;;;;;;761251;184;816588;-68
2023/02/12 05:17:05;;;;;;;24.20;14.60;;;;;;;;;;753703;183;922924;-68
2023/02/12 05:19:31;;;;;;;22.27;15.30;;;;;;;;;;763931;183;919422;-68
2023/02/12 05:21:57;;;;;;;27.90;17.37;;;;;;;;;;755022;183;918564;-68
2023/02/12 05:24:23;;;;;;;23.40;16.00;;;;;;;;;;753192;183;919023;-68
2023/02/12 05:26:49;;;;;;;25.35;15.93;;;;;;;;;;764696;180;918779;-69
2023/02/12 05:29:15;;;;;;;26.60;14.77;;;;;;;;;;766910;183;918978;-68
2023/02/12 05:31:41;;;;;;;28.47;16.00;;;;;;;;;;761770;183;897918;-68
2023/02/12 05:34:07;;;;;;;28.83;16.50;;;;;;;;;;761450;183;925431;-68
2023/02/12 05:36:33;;;;;;;26.50;13.50;;;;;;;;;;758499;181;920564;-68
2023/02/12 05:39:00;;;;;;;26.00;15.90;;;;;;;;;;759610;179;918803;-68
2023/02/12 05:41:25;;;;;;;28.00;15.87;;;;;;;;;;776069;182;814219;-69
2023/02/12 05:43:51;;;;;;;22.60;14.60;;;;;;;;;;775893;182;918518;-68
2023/02/12 05:46:17;;;;;;;25.30;14.70;;;;;;;;;;762116;182;919490;-68
2023/02/12 05:48:43;;;;;;;25.27;15.03;;;;;;;;;;757549;183;947581;-69
2023/02/12 05:51:10;;;;;;;23.12;14.32;;;;;;;;;;763715;183;916770;-69
2023/02/12 05:53:35;;;;;;;24.10;14.60;;;;;;;;;;770702;182;932562;-68
2023/02/12 05:56:07;;;;;;;23.90;14.50;;;;;;;;;;763233;183;817333;-68
2023/02/12 05:58:33;;;;;;;21.43;12.90;;;;;;;;;;758910;183;918360;-68
2023/02/12 06:00:59;;;;;;;22.23;13.20;;;;;;;;;;768207;183;828724;-68
2023/02/12 06:03:25;;;;;;;20.90;12.27;;;;;;;;;;761540;183;917490;-68
2023/02/12 06:05:50;;;;;;;18.33;11.40;;;;;;;;;;760970;183;919347;-68
2023/02/12 06:08:16;;;;;;;18.27;11.82;;;;;;;;;;758166;183;918422;-68
2023/02/12 06:10:42;;;;;;;18.30;11.93;;;;;;;;;;757822;183;1021385;-68
2023/02/12 06:13:08;;;;;;;20.07;12.77;;;;;;;;;;754176;183;915413;-69
2023/02/12 06:15:36;;;;;;;22.47;13.03;;;;;;;;;;754052;184;918991;-69
2023/02/12 06:18:01;;;;;;;27.83;15.10;;;;;;;;;;759747;184;916393;-68
2023/02/12 06:20:27;;;;;;;26.17;12.73;;;;;;;;;;748690;184;918948;-68
2023/02/12 06:22:53;;;;;;;27.00;13.50;;;;;;;;;;761609;183;1115573;-67
2023/02/12 06:25:19;;;;;;;23.48;13.18;;;;;;;;;;764638;182;919556;-67
2023/02/12 06:27:45;;;;;;;23.03;12.23;;;;;;;;;;761839;179;1004928;-67
2023/02/12 06:30:11;;;;;;;21.53;12.83;;;;;;;;;;758628;183;918245;-68
2023/02/12 06:32:37;;;;;;;23.30;13.00;;;;;;;;;;763244;181;1008779;-67
2023/02/12 06:35:03;;;;;;;20.63;12.20;;;;;;;;;;763321;182;916612;-68
2023/02/12 06:37:29;;;;;;;20.20;11.90;;;;;;;;;;760697;183;1107243;-68
2023/02/12 06:39:55;;;;;;;19.37;12.30;;;;;;;;;;760219;183;1024636;-68
2023/02/12 06:42:20;;;;;;;22.93;13.23;;;;;;;;;;773854;182;920707;-68
2023/02/12 06:44:46;;;;;;;23.20;11.73;;;;;;;;;;750276;184;1125390;-68
2023/02/12 06:47:12;;;;;;;23.53;13.80;;;;;;;;;;763956;180;1020818;-67
2023/02/12 06:49:38;;;;;;;19.00;12.50;;;;;;;;;;761977;182;1120814;-68
2023/02/12 06:52:04;;;;;;;21.63;12.77;;;;;;;;;;757091;182;1020269;-68
2023/02/12 06:54:30;;;;;;;19.50;12.53;;;;;;;;;;764612;182;918541;-69
2023/02/12 06:56:56;;;;;;;22.30;12.23;;;;;;;;;;764762;180;919182;-68
2023/02/12 06:59:21;;;;;;;21.37;12.67;;;;;;;;;;756593;183;918996;-68
2023/02/12 07:01:47;;;;;;;18.60;11.80;;;;;;;;;;756648;183;837063;-68
2023/02/12 07:04:13;;;;;;;25.02;12.25;;;;;;;;;;759121;183;918464;-70
2023/02/12 07:06:39;;;;;;;21.93;13.80;;;;;;;;;;760962;183;905679;-68
2023/02/12 07:09:05;;;;;;;24.77;14.17;;;;;;;;;;760151;183;922104;-69
2023/02/12 07:11:31;;;;;;;22.87;14.30;;;;;;;;;;758169;183;922015;-68
2023/02/12 07:13:56;;;;;;;28.53;14.57;;;;;;;;;;759056;183;910298;-69
2023/02/12 07:16:22;;;;;;;19.70;12.43;;;;;;;;;;757264;183;920733;-69
2023/02/12 07:18:48;;;;;;;17.10;10.47;;;;;;;;;;755979;183;918424;-69
2023/02/12 07:21:14;;;;;;;17.87;13.20;;;;;;;;;;764041;183;819832;-68
2023/02/12 07:23:40;;;;;;;23.17;12.90;;;;;;;;;;759455;183;905408;-69
2023/02/12 07:26:06;;;;;;;21.90;13.40;;;;;;;;;;759046;183;915206;-69
2023/02/12 07:28:33;;;;;;;21.27;12.47;;;;;;;;;;757315;183;916754;-70
2023/02/12 07:31:13;;;;;;;19.70;12.37;;;;;;;;;;765595;182;821247;-70
2023/02/12 07:33:39;;;;;;;23.03;12.43;;;;;;;;;;770191;182;939353;-69
2023/02/12 07:36:05;;;;;;;20.17;11.23;;;;;;;;;;761346;183;907775;-70
2023/02/12 07:38:32;;;;;;;22.03;12.17;;;;;;;;;;760574;182;925380;-70
2023/02/12 07:41:03;;;;;;;19.33;12.67;;;;;;;;;;758520;183;817038;-70
2023/02/12 07:43:28;;;;;;;19.93;13.00;;;;;;;;;;750942;183;919033;-70
2023/02/12 07:45:54;;;;;;;22.63;11.83;;;;;;;;;;753994;183;1020814;-69
2023/02/12 07:48:20;;;;;;;22.50;12.73;;;;;;;;;;767036;180;1020354;-70
2023/02/12 07:50:46;;;;;;;20.40;14.17;;;;;;;;;;769840;182;919031;-70
2023/02/12 07:53:12;;;;;;;22.23;13.53;;;;;;;;;;757881;183;918093;-70
2023/02/12 07:55:38;;;;;;;23.12;12.55;;;;;;;;;;758566;183;935355;-70
2023/02/12 07:58:04;;;;;;;21.03;12.60;;;;;;;;;;767696;181;920491;-70
2023/02/12 08:00:30;;;;;;;20.67;12.07;;;;;;;;;;754723;181;920024;-70
2023/02/12 08:02:56;;;;;;;19.20;12.77;;;;;;;;;;755727;182;921222;-70
2023/02/12 08:05:21;;;;;;;17.50;11.70;;;;;;;;;;763952;183;918326;-70
2023/02/12 08:07:47;;;;;;;19.87;12.67;;;;;;;;;;764656;180;918291;-70
2023/02/12 08:10:13;;;;;;;18.77;12.57;;;;;;;;;;760028;182;918110;-70
2023/02/12 08:12:39;;;;;;;18.77;12.80;;;;;;;;;;766798;183;815409;-70
2023/02/12 08:15:05;;;;;;;21.57;12.70;;;;;;;;;;757058;183;816830;-70
2023/02/12 08:17:31;;;;;;;21.17;13.50;;;;;;;;;;759351;183;917660;-70
2023/02/12 08:19:57;;;;;;;23.20;13.77;;;;;;;;;;757044;183;918051;-70
2023/02/12 08:22:23;;;;;;;19.63;13.27;;;;;;;;;;763817;183;816774;-70
2023/02/12 08:24:48;;;;;;;20.37;12.90;;;;;;;;;;767464;183;624520;-70
2023/02/12 08:27:14;;;;;;;20.80;12.70;;;;;;;;;;768673;180;818058;-70
2023/02/12 08:29:40;;;;;;;18.23;12.87;;;;;;;;;;773900;182;815625;-70
2023/02/12 08:32:09;;;;;;;22.37;13.57;;;;;;;;;;756175;183;816140;-69
2023/02/12 08:34:32;;;;;;;20.13;12.70;;;;;;;;;;759289;183;918658;-70
2023/02/12 08:36:58;;;;;;;21.63;12.10;;;;;;;;;;770067;180;816904;-70
2023/02/12 08:39:23;;;;;;;18.23;12.67;;;;;;;;;;750050;182;917020;-70
2023/02/12 08:41:49;;;;;;;22.90;13.47;;;;;;;;;;757184;184;809085;-70
2023/02/12 08:44:15;;;;;;;18.13;11.53;;;;;;;;;;758814;183;635750;-70
2023/02/12 08:46:42;;;;;;;21.47;12.30;;;;;;;;;;766523;183;621452;-69
2023/02/12 08:49:09;;;;;;;25.40;18.57;;;;;;;;;;769757;183;819184;-69
2023/02/12 08:51:34;;;;;;;26.43;18.03;;;;;;;;;;756756;183;812164;-70
2023/02/12 08:54:00;;;;;;;30.60;14.80;;;;;;;;;;773899;183;918439;-70
2023/02/12 08:56:27;;;;;;;30.70;14.60;;;;;;;;;;765111;182;935538;-70
2023/02/12 08:58:52;;;;;;;27.93;13.40;;;;;;;;;;756325;180;815943;-70
2023/02/12 09:01:19;;;;;;;33.77;16.23;;;;;;;;;;766896;183;966697;-70
2023/02/12 09:03:44;;;;;;;45.30;21.50;;;;;;;;;;755457;183;922578;-70
2023/02/12 09:06:10;;;;;;;55.03;22.77;;;;;;;;;;751913;183;918991;-70
2023/02/12 09:08:36;;;;;;;39.60;19.03;;;;;;;;;;758267;180;816062;-70
2023/02/12 09:11:03;;;;;;;36.87;16.87;;;;;;;;;;758867;184;920309;-70
2023/02/12 09:13:29;;;;;;;28.57;13.90;;;;;;;;;;757089;180;1014066;-69
2023/02/12 09:15:54;;;;;;;21.13;9.83;;;;;;;;;;768213;182;919240;-70
2023/02/12 09:18:20;;;;;;;18.27;9.47;;;;;;;;;;765292;182;873846;-70
2023/02/12 09:20:46;;;;;;;28.07;15.37;;;;;;;;;;758938;182;813907;-70
2023/02/12 09:23:12;;;;;;;183.50;73.93;;;;;;;;;;765639;182;914826;-69
2023/02/12 09:25:38;;;;;;;49.90;22.00;;;;;;;;;;773652;182;914849;-69
2023/02/12 09:28:04;;;;;;;85.00;32.80;;;;;;;;;;758046;183;1042235;-70
2023/02/12 09:30:30;;;;;;;63.33;34.10;;;;;;;;;;756656;182;911379;-69
2023/02/12 09:32:55;;;;;;;79.50;39.10;;;;;;;;;;763435;182;817700;-70
2023/02/12 09:35:21;;;;;;;29.37;12.97;;;;;;;;;;763665;183;916262;-69
2023/02/12 09:37:47;;;;;;;98.87;44.80;;;;;;;;;;763162;180;912997;-69
2023/02/12 09:40:16;;;;;;;46.73;24.10;;;;;;;;;;762204;183;915914;-70
2023/02/12 09:42:42;;;;;;;72.00;38.97;;;;;;;;;;759952;183;916313;-69
2023/02/12 09:45:10;;;;;;;40.00;20.50;;;;;;;;;;755578;183;913872;-70
2023/02/12 09:47:51;;;;;;;23.00;12.00;;;;;;;;;;756717;183;1023578;-69
2023/02/12 09:50:17;;;;;;;25.33;11.97;;;;;;;;;;762845;182;1021084;-69
2023/02/12 09:52:42;;;;;;;30.87;17.17;;;;;;;;;;764968;184;919126;-69
2023/02/12 09:55:10;;;;;;;19.27;10.80;;;;;;;;;;749982;183;914958;-69
2023/02/12 09:57:36;;;;;;;21.77;10.37;;;;;;;;;;756092;182;814186;-69
2023/02/12 10:00:03;;;;;;;22.10;13.70;;;;;;;;;;759000;183;921384;-70
2023/02/12 10:02:29;;;;;;;20.30;11.67;;;;;;;;;;760614;183;924073;-69
2023/02/12 10:04:55;;;;;;;32.67;24.67;;;;;;;;;;760986;183;920528;-69
2023/02/12 10:07:26;;;;;;;20.25;10.95;;;;;;;;;;757589;183;826328;-69
2023/02/12 10:10:04;;;;;;;26.30;14.70;;;;;;;;;;759951;183;915458;-70
2023/02/12 10:12:30;;;;;;;16.13;9.10;;;;;;;;;;768534;183;812919;-69
2023/02/12 10:14:56;;;;;;;12.23;7.93;;;;;;;;;;764245;182;916228;-69
2023/02/12 10:17:37;;;;;;;16.97;9.83;;;;;;;;;;766486;183;627765;-69
2023/02/12 10:20:07;;;;;;;13.40;8.70;;;;;;;;;;754254;183;920104;-69
2023/02/12 10:22:51;;;;;;;16.10;8.77;;;;;;;;;;766341;182;864803;-69
2023/02/12 10:25:35;;;;;;;14.70;7.77;;;;;;;;;;757821;182;924154;-69
2023/02/12 10:28:02;;;;;;;20.37;8.57;;;;;;;;;;751693;182;918640;-69
2023/02/12 10:30:30;;;;;;;24.20;14.90;;;;;;;;;;763031;183;919816;-69
2023/02/12 10:32:56;;;;;;;19.13;7.63;;;;;;;;;;751567;183;920066;-69
2023/02/12 10:35:22;;;;;;;18.37;9.70;;;;;;;;;;754919;181;926334;-69
2023/02/12 10:37:48;;;;;;;15.10;8.30;;;;;;;;;;766724;180;900238;-70
2023/02/12 10:40:14;;;;;;;13.97;9.90;;;;;;;;;;761630;182;915976;-70
2023/02/12 10:42:40;;;;;;;21.33;10.93;;;;;;;;;;760335;179;919317;-70
2023/02/12 10:45:06;;;;;;;12.67;8.23;;;;;;;;;;762561;183;915090;-71
2023/02/12 10:47:32;;;;;;;21.63;11.47;;;;;;;;;;769320;183;820608;-70
2023/02/12 10:49:58;;;;;;;20.47;12.07;;;;;;;;;;769923;183;911844;-70
2023/02/12 10:52:30;;;;;;;39.90;21.30;;;;;;;;;;763615;182;917176;-70
2023/02/12 10:54:56;;;;;;;34.33;15.70;;;;;;;;;;761165;183;909680;-70
2023/02/12 10:57:22;;;;;;;33.27;19.40;;;;;;;;;;750647;183;916129;-70
2023/02/12 10:59:47;;;;;;;38.37;21.23;;;;;;;;;;752039;183;933503;-70
2023/02/12 11:02:23;;;;;;;27.33;13.62;;;;;;;;;;754464;184;925824;-70
2023/02/12 11:04:49;;;;;;;23.13;8.70;;;;;;;;;;760076;183;915542;-71
2023/02/12 11:07:14;;;;;;;18.03;10.03;;;;;;;;;;753527;184;915921;-70
2023/02/12 11:09:45;;;;;;;19.97;11.53;;;;;;;;;;755806;183;915171;-70
2023/02/12 11:12:17;;;;;;;21.33;13.48;;;;;;;;;;759637;180;915887;-70
2023/02/12 11:14:42;;;;;;;13.23;7.23;;;;;;;;;;758874;183;915863;-70
2023/02/12 11:17:08;;;;;;;13.60;6.90;;;;;;;;;;755470;183;916350;-71
2023/02/12 11:19:34;;;;;;;78.03;29.33;;;;;;;;;;757199;183;1023747;-70
2023/02/12 11:22:05;;;;;;;19.95;9.23;;;;;;;;;;760475;183;916621;-71
2023/02/12 11:24:31;;;;;;;12.97;7.30;;;;;;;;;;772463;182;813176;-70
2023/02/12 11:26:59;;;;;;;15.90;7.93;;;;;;;;;;758878;180;1032780;-69
2023/02/12 11:29:25;;;;;;;39.10;18.53;;;;;;;;;;755039;183;914065;-70
2023/02/12 11:32:00;;;;;;;60.17;29.17;;;;;;;;;;762233;183;804180;-70
2023/02/12 11:34:26;;;;;;;19.90;9.17;;;;;;;;;;768303;181;817302;-70
2023/02/12 11:36:52;;;;;;;22.20;12.00;;;;;;;;;;765836;181;919887;-70
2023/02/12 11:39:20;;;;;;;11.20;6.70;;;;;;;;;;762340;183;918451;-70
2023/02/12 11:41:45;;;;;;;28.13;15.40;;;;;;;;;;763162;180;858195;-70
2023/02/12 11:44:11;;;;;;;9.73;6.03;;;;;;;;;;757718;183;1015665;-70
2023/02/12 11:46:36;;;;;;;14.20;7.07;;;;;;;;;;763401;183;968598;-69
2023/02/12 11:49:02;;;;;;;13.57;6.60;;;;;;;;;;764261;180;913469;-70
2023/02/12 11:51:28;;;;;;;13.30;7.00;;;;;;;;;;767491;182;812013;-70
2023/02/12 11:53:54;;;;;;;15.23;7.23;;;;;;;;;;755991;182;907364;-68
2023/02/12 11:56:20;;;;;;;38.13;21.00;;;;;;;;;;771046;182;920826;-70
2023/02/12 11:58:46;;;;;;;18.52;10.32;;;;;;;;;;770076;183;936972;-69
2023/02/12 12:01:11;;;;;;;29.93;14.87;;;;;;;;;;757917;183;920995;-69
2023/02/12 12:03:38;;;;;;;28.50;14.70;;;;;;;;;;757514;183;1007033;-69
2023/02/12 12:06:07;;;;;;;19.90;12.10;;;;;;;;;;761808;182;915440;-70
2023/02/12 12:08:33;;;;;;;22.10;13.80;;;;;;;;;;760055;183;917318;-68
2023/02/12 12:11:14;;;;;;;17.63;6.70;;;;;;;;;;762086;183;912488;-69
2023/02/12 12:13:41;;;;;;;16.63;7.47;;;;;;;;;;761675;182;911351;-69
2023/02/12 12:21:29;;;;;;;14.43;7.63;;;;;;;;;;768231;183;911288;-75
2023/02/12 12:23:58;;;;;;;15.93;7.90;;;;;;;;;;772931;182;916453;-75
2023/02/12 12:26:24;;;;;;;19.43;7.67;;;;;;;;;;767378;182;809161;-75
2023/02/12 12:28:51;;;;;;;28.20;12.13;;;;;;;;;;758258;179;913168;-75
2023/02/12 12:31:19;;;;;;;15.30;7.73;;;;;;;;;;765450;183;810738;-75
2023/02/12 12:33:46;;;;;;;25.80;13.07;;;;;;;;;;763011;179;914260;-75
2023/02/12 12:36:27;;;;;;;22.13;11.13;;;;;;;;;;764605;183;919281;-75
2023/02/12 12:39:09;;;;;;;18.75;8.45;;;;;;;;;;760707;183;1024367;-75
2023/02/12 12:41:50;;;;;;;23.58;8.85;;;;;;;;;;764437;183;929932;-75
2023/02/12 12:44:22;;;;;;;16.30;9.30;;;;;;;;;;754564;182;815161;-75
2023/02/12 12:46:52;;;;;;;15.75;8.18;;;;;;;;;;761422;180;921801;-74
2023/02/12 12:49:34;;;;;;;23.73;10.18;;;;;;;;;;763479;182;918448;-76
2023/02/12 12:52:10;;;;;;;17.17;9.87;;;;;;;;;;770136;182;936571;-75
2023/02/12 12:54:52;;;;;;;21.27;9.10;;;;;;;;;;772565;182;815091;-75
2023/02/12 12:57:21;;;;;;;22.30;10.37;;;;;;;;;;757980;182;815506;-73
2023/02/12 12:59:53;;;;;;;16.93;9.00;;;;;;;;;;768345;182;920456;-75
2023/02/12 13:02:24;;;;;;;21.83;11.77;;;;;;;;;;761940;180;911373;-74
2023/02/12 13:05:10;;;;;;;13.65;8.52;;;;;;;;;;761974;183;918835;-75
2023/02/12 13:07:42;;;;;;;29.90;20.00;;;;;;;;;;754957;182;918211;-75
2023/02/12 13:10:13;;;;;;;24.00;10.75;;;;;;;;;;776952;182;917939;-75
2023/02/12 13:12:54;;;;;;;16.57;7.97;;;;;;;;;;769021;182;918231;-75
2023/02/12 13:15:26;;;;;;;14.30;8.03;;;;;;;;;;764187;183;917970;-76
2023/02/12 13:18:01;;;;;;;18.57;9.30;;;;;;;;;;762103;183;917801;-75
2023/02/12 13:20:34;;;;;;;18.27;10.17;;;;;;;;;;759740;183;816400;-75
2023/02/12 13:23:01;;;;;;;142.70;72.73;;;;;;;;;;760332;183;815952;-75
2023/02/12 13:25:29;;;;;;;103.20;51.00;;;;;;;;;;760353;184;814513;-74
2023/02/12 13:27:54;;;;;;;43.70;19.60;;;;;;;;;;765018;182;807064;-75
2023/02/12 13:30:20;;;;;;;17.37;9.47;;;;;;;;;;751461;182;817720;-75
2023/02/12 13:32:46;;;;;;;20.33;10.03;;;;;;;;;;760901;182;917852;-75
2023/02/12 13:35:14;;;;;;;19.13;10.30;;;;;;;;;;766346;183;916704;-75
2023/02/12 13:37:40;;;;;;;37.40;19.43;;;;;;;;;;764490;183;815458;-75
2023/02/12 13:40:06;;;;;;;21.67;14.47;;;;;;;;;;762898;183;918294;-74
2023/02/12 13:42:39;;;;;;;72.43;33.67;;;;;;;;;;764184;183;1023665;-76
2023/02/12 13:45:07;;;;;;;22.07;13.13;;;;;;;;;;765950;183;918387;-74
2023/02/12 13:47:34;;;;;;;20.33;11.13;;;;;;;;;;762342;180;919508;-74
2023/02/12 13:50:06;;;;;;;19.42;12.25;;;;;;;;;;756809;183;918661;-74
2023/02/12 13:52:34;;;;;;;26.13;11.80;;;;;;;;;;754381;183;1020083;-74
2023/02/12 13:54:59;;;;;;;16.17;7.05;;;;;;;;;;767808;183;917514;-75
2023/02/12 13:57:25;;;;;;;13.00;7.83;;;;;;;;;;761966;182;978372;-75
2023/02/12 13:59:52;;;;;;;23.07;10.40;;;;;;;;;;763170;181;801001;-75
2023/02/12 14:02:32;;;;;;;132.43;67.80;;;;;;;;;;763665;182;988581;-75
2023/02/12 14:04:59;;;;;;;74.23;43.00;;;;;;;;;;769193;183;920323;-76
2023/02/12 14:07:25;;;;;;;28.77;12.53;;;;;;;;;;762340;182;826352;-75
2023/02/12 14:10:06;;;;;;;29.60;15.60;;;;;;;;;;754910;183;927773;-74
2023/02/12 14:12:31;;;;;;;20.90;10.75;;;;;;;;;;765338;179;916056;-75
2023/02/12 14:15:03;;;;;;;59.40;32.33;;;;;;;;;;763661;183;917346;-75